• Join FlightAware (Why Join?)
  • Login
  • US Flag 
07:47PM EDT


 

Airport Tracker/Info


-or-


 

Live Flight TrackerFlight Track Log ✈ ASH2792 ✈ 19-Apr-2012 ✈ KSBA - KPHX

Flight Track Log - Related Links

Times and Time Zones

All times are in EDT time to prevent confusion due to time zone crossing. See the ASH2792 flight status page for this flight to view local times or setup timezone preferences in your user account.

Time Position Orientation Groundspeed Altitude Reporting Facility
EDT Latitude Longitude Course Direction KTS MPH feet Rate Location/Type
07:49PM 34.4258 -119.8256 119° Southeast 148 170 700  Level Los Angeles Center
07:50PM 34.3906 -119.7486 141° Southeast 218 251 3,000 1,920 Climbing Los Angeles Center
07:51PM 34.3358 -119.6958 156° South 273 314 5,300 2,280 Climbing Los Angeles Center
07:52PM 34.2761 -119.6633 154° Southeast 300 345 7,400 2,280 Climbing Los Angeles Center
07:53PM 34.2064 -119.6225 155° Southeast 300 345 9,600 2,220 Climbing Los Angeles Center
07:54PM 34.1283 -119.5792 156° South 293 337 11,900 2,040 Climbing Los Angeles Center
07:55PM 34.0442 -119.5331 132° Southeast 299 344 13,700 1,680 Climbing Los Angeles Center
07:56PM 33.9836 -119.4531 126° Southeast 304 350 15,300 1,680 Climbing Los Angeles Center
07:57PM 33.9278 -119.3608 125° Southeast 311 358 17,100 1,560 Climbing Los Angeles Center
07:58PM 33.8719 -119.2636 125° Southeast 337 388 18,500 1,320 Climbing Los Angeles Center
07:59PM 33.8158 -119.1664 126° Southeast 352 405 19,800 660 Climbing Los Angeles Center
08:00PM 33.7536 -119.0617 125° Southeast 369 425 19,900 480 Climbing Los Angeles Center
08:01PM 33.6875 -118.9472 125° Southeast 391 450 20,800 840 Climbing Los Angeles Center
08:02PM 33.6211 -118.8353 100° East 408 470 21,600 720 Climbing Los Angeles Center
08:03PM 33.6031 -118.7175 90° East 403 464 22,300 720 Climbing Los Angeles Center
08:04PM 33.6039 -118.5778 88° East 394 453 23,100 720 Climbing Los Angeles Center
08:05PM 33.6086 -118.4383 91° East 406 467 23,800 600 Climbing Los Angeles Center
08:06PM 33.6069 -118.2961 87° East 419 482 24,400 600 Climbing Los Angeles Center
08:07PM 33.6136 -118.1539 89° East 419 482 25,000 600 Climbing Los Angeles Center
08:08PM 33.6158 -118.0094 89° East 419 482 25,600 600 Climbing Los Angeles Center
08:09PM 33.6181 -117.8647 89° East 419 482 26,300 600 Climbing Los Angeles Center
08:10PM 33.6200 -117.7203 88° East 419 482 26,800 600 Climbing Los Angeles Center
08:11PM 33.6242 -117.5731 89° East 424 488 27,500 720 Climbing Los Angeles Center
08:12PM 33.6256 -117.4308 89° East 424 488 28,300 660 Climbing Los Angeles Center
08:13PM 33.6272 -117.2739 90° East 424 488 28,900 300 Climbing Los Angeles Center
08:14PM 33.6264 -117.1489 89° East 418 481 29,000  Climbing Los Angeles Center
08:15PM 33.6275 -117.0092 90° East 418 481 29,000  Level Los Angeles Center
08:16PM 33.6283 -116.8697 91° East 418 481 29,000  Level Los Angeles Center
08:17PM 33.6269 -116.7275 90° East 423 487 29,000  Level Los Angeles Center
08:18PM 33.6278 -116.5778 90° East 429 494 29,000  Level Los Angeles Center
08:19PM 33.6281 -116.4256 90° East 440 506 29,000  Level Los Angeles Center
08:20PM 33.6283 -116.2708 91° East 446 513 29,000  Level Los Angeles Center
08:21PM 33.6264 -116.1186 91° East 452 520 29,000  Level Los Angeles Center
08:22PM 33.6242 -115.9617 91° East 463 533 29,000  Level Los Angeles Center
08:23PM 33.6219 -115.8044 91° East 463 533 29,000  Level Los Angeles Center
08:24PM 33.6192 -115.6547 92° East 457 526 29,000  Level Los Angeles Center
08:25PM 33.6144 -115.5075 91° East 452 520 29,000  Level Los Angeles Center
08:26PM 33.6117 -115.3581 92° East 447 514 29,000  Level Los Angeles Center
08:27PM 33.6064 -115.2133 91° East 437 503 29,000  Level Los Angeles Center
08:28PM 33.6031 -115.0614 92° East 442 509 29,000  Level Los Angeles Center
08:29PM 33.5997 -114.9142 93° East 442 509 29,000  Level Los Angeles Center
08:30PM 33.5939 -114.7672 102° East 442 509 29,000  Level Los Angeles Center
08:31PM 33.5672 -114.6181 103° East 442 509 29,000  Level Los Angeles Center
08:32PM 33.5381 -114.4689 103° East 447 514 29,000  Level Los Angeles Center
08:33PM 33.5089 -114.3200 103° East 447 514 29,000  Level Los Angeles Center
08:34PM 33.4875 -114.2100 101° East 452 520 29,000  Level Albuquerque Center
08:35PM 33.4642 -114.0711 106° East 467 537 29,000 -600 Level Albuquerque Center
08:36PM 33.4303 -113.9267 103° East 467 537 27,800 -1,680 Descending Albuquerque Center
08:37PM 33.4028 -113.7828 104° East 456 525 25,700 -1,440 Descending Albuquerque Center
08:38PM 33.3744 -113.6464 104° East 436 502 25,000 -600 Descending Albuquerque Center
08:39PM 33.3461 -113.5100 103° East 431 496 24,500 -1,440 Descending Albuquerque Center
08:40PM 33.3194 -113.3764 105° East 425 489 22,200 -2,340 Descending Albuquerque Center
08:41PM 33.2906 -113.2475 100° East 413 475 19,900 -2,340 Descending Albuquerque Center
08:42PM 33.2719 -113.1172 88° East 401 461 17,600 -2,340 Descending Albuquerque Center
08:43PM 33.2758 -112.9908 88° East 393 452 15,300 -1,800 Descending Albuquerque Center
08:44PM 33.2792 -112.8744 87° East 380 437 14,000 -660 Descending Albuquerque Center
08:45PM 33.2839 -112.7703 91° East 340 391 14,000  Level Albuquerque Center
08:46PM 33.2822 -112.6658 87° East 317 365 14,000 -300 Level Albuquerque Center
08:47PM 33.2867 -112.5644 87° East 306 352 13,400 -1,140 Descending Albuquerque Center
08:48PM 33.2911 -112.4603 86° East 306 352 11,800 -1,380 Descending Albuquerque Center
08:49PM 33.3000 -112.3000 90° East 299 344 10,000 -960 Descending Phoenix TRACON
08:50PM 33.3000 -112.2000 64° Northeast 298 343 9,500 -540 Descending Phoenix TRACON
08:51PM 33.3333 -112.1167 90° East 293 337 9,000 -720 Descending Phoenix TRACON
08:52PM 33.3333 -112.0333 77° East 253 291 8,100 -1,080 Descending Phoenix TRACON
08:53PM 33.3500 -111.9500 90° East 242 278 7,000 -1,260 Descending Phoenix TRACON
08:54PM 33.3500 -111.8667 16° North 244 281 5,800 -1,200 Descending Phoenix TRACON
08:55PM 33.4000 -111.8500 320° Northwest 218 251 4,600 -1,380 Descending Phoenix TRACON
08:56PM 33.4333 -111.8833 270° West 184 212 3,100 -1,260 Descending Phoenix TRACON
08:57PM 33.4333 -111.9333 270° West 139 160 2,000 -900 Descending Phoenix TRACON
08:58PM 33.4333 -111.9833 270° West 138 159 1,300 -720 Descending Phoenix TRACON